Time;durP1;ratioP1;P1;durP2;ratioP2;P2;SDS_P1;SDS_P2;PMS_P1;PMS_P2;Temp;Humidity;BMP_temperature;BMP_pressure;BME280_temperature;BME280_humidity;BME280_pressure;Samples;Min_cycle;Max_cycle;Signal;HPM_P1;HPM_P2
2022/10/22 05:27:31;;;;;;;;;;;;;;;21.37;59.86;99266.85;1917977;72;20136;-69
2022/10/22 05:30:19;;;;;;;;;;;;;;;21.69;59.23;99267.73;1895832;73;20151;-70
2022/10/22 05:33:06;;;;;;;;;;;;;;;22.49;57.61;99277.65;1912346;73;20122;-70
2022/10/22 05:35:54;;;;;;;;;;;;;;;23.14;55.97;99275.00;1900961;73;20173;-71
2022/10/22 05:38:42;;;;;;;;;;;;;;;23.70;54.56;99276.92;1892959;73;20187;-72
2022/10/22 05:41:29;;;;;;;;;;;;;;;24.15;53.54;99271.41;1895565;73;20229;-71
2022/10/22 05:44:16;;;;;;;;;;;;;;;24.57;52.50;99269.87;1918723;73;20162;-72
2022/10/22 05:47:04;;;;;;;;;;;;;;;24.90;51.99;99281.31;1918472;73;20213;-71
2022/10/22 05:49:51;;;;;;;;;;;;;;;25.26;56.37;99279.84;1907583;73;20131;-71
2022/10/22 05:52:39;;;;;;;;;;;;;;;25.47;55.12;99277.64;1897906;73;20139;-71
2022/10/22 05:55:26;;;;;;;;;;;;;;;25.66;53.87;99280.86;1914330;73;20122;-71
2022/10/22 05:58:14;;;;;;;;;;;;;;;25.79;52.34;99284.02;1878586;73;20210;-71
2022/10/22 06:01:02;;;;;;;;;;;;;;;25.95;51.29;99291.33;1872515;75;20356;-70
2022/10/22 06:03:51;;;;;;;;;;;;;;;26.02;50.20;99298.02;1869226;75;20124;-71
2022/10/22 06:06:43;;;;;;;;;;;;;;;26.09;49.46;99297.25;1867621;75;20196;-71
2022/10/22 06:09:32;;;;;;;;;;;;;;;26.11;48.86;99304.73;1862233;75;20222;-71
2022/10/22 06:12:19;;;;;;;;;;;;;;;26.21;48.23;99314.43;1875175;75;20182;-73
2022/10/22 06:15:07;;;;;;;;;;;;;;;26.23;48.03;99307.30;1857756;75;20124;-72
2022/10/22 06:17:55;;;;;;;;;;;;;;;26.28;47.64;99312.28;1867524;75;20113;-71
2022/10/22 06:20:44;;;;;;;;;;;;;;;26.29;47.58;99320.01;1851791;75;20118;-72
2022/10/22 06:23:32;;;;;;;;;;;;;;;26.29;47.51;99311.20;1876522;75;20190;-73
2022/10/22 06:26:19;;;;;;;;;;;;;;;26.34;47.35;99318.67;1868478;74;20124;-73
2022/10/22 06:29:07;;;;;;;;;;;;;;;26.34;47.13;99315.92;1888084;74;20120;-73
2022/10/22 06:31:54;;;;;;;;;;;;;;;26.30;46.94;99310.67;1896054;74;20192;-72
2022/10/22 06:34:42;;;;;;;;;;;;;;;26.36;46.53;99315.11;1888547;74;20239;-72
2022/10/22 06:37:29;;;;;;;;;;;;;;;26.28;46.44;99307.35;1891037;74;20228;-72
2022/10/22 06:40:17;;;;;;;;;;;;;;;26.32;46.45;99322.25;1895875;74;20161;-72
2022/10/22 06:43:05;;;;;;;;;;;;;;;26.34;46.32;99326.94;1896897;74;20164;-73
2022/10/22 06:45:52;;;;;;;;;;;;;;;26.31;46.31;99326.92;1892187;74;20151;-72
2022/10/22 06:48:40;;;;;;;;;;;;;;;26.28;46.21;99346.70;1886914;74;20203;-72
2022/10/22 06:51:28;;;;;;;;;;;;;;;26.29;46.14;99347.55;1899261;74;20263;-72
2022/10/22 06:54:16;;;;;;;;;;;;;;;26.28;46.06;99340.39;1900410;74;20191;-72
2022/10/22 06:57:03;;;;;;;;;;;;;;;26.27;46.01;99346.98;1886619;74;20250;-72
2022/10/22 06:59:51;;;;;;;;;;;;;;;26.24;45.94;99348.33;1895367;74;20120;-72
2022/10/22 07:02:38;;;;;;;;;;;;;;;26.22;45.92;99351.06;1900472;74;20156;-73
2022/10/22 07:05:25;;;;;;;;;;;;;;;26.22;45.85;99355.20;1849027;74;20120;-73
2022/10/22 07:08:12;;;;;;;;;;;;;;;26.22;45.81;99364.83;1892929;74;20149;-72
2022/10/22 07:11:07;;;;;;;;;;;;;;;26.21;45.72;99357.69;1902114;74;20277;-73
2022/10/22 07:13:55;;;;;;;;;;;;;;;26.19;45.76;99348.83;1901605;74;20218;-72
2022/10/22 07:16:44;;;;;;;;;;;;;;;26.17;45.67;99353.23;1898770;74;20168;-73
2022/10/22 07:19:31;;;;;;;;;;;;;;;26.22;45.62;99360.70;1895042;74;20445;-72
2022/10/22 07:22:18;;;;;;;;;;;;;;;26.19;45.52;99355.17;1836635;77;20176;-74
2022/10/22 07:25:06;;;;;;;;;;;;;;;26.17;45.37;99362.02;1833071;77;20200;-74
2022/10/22 07:27:53;;;;;;;;;;;;;;;26.15;45.29;99362.30;1825979;77;20174;-74
2022/10/22 07:30:40;;;;;;;;;;;;;;;26.19;45.20;99368.09;1832121;76;20232;-74
2022/10/22 07:33:28;;;;;;;;;;;;;;;26.18;45.16;99376.93;1830912;78;20195;-75
2022/10/22 07:36:19;;;;;;;;;;;;;;;26.17;45.13;99379.92;1835108;78;20155;-74
2022/10/22 07:39:06;;;;;;;;;;;;;;;26.16;45.06;99377.73;1836240;78;20195;-74
2022/10/22 07:41:54;;;;;;;;;;;;;;;26.14;45.12;99379.09;1831865;76;20177;-74
2022/10/22 07:44:41;;;;;;;;;;;;;;;26.15;45.06;99386.23;1840845;78;20148;-74
2022/10/22 07:47:28;;;;;;;;;;;;;;;26.13;45.02;99386.52;1827988;78;20203;-74
2022/10/22 07:50:16;;;;;;;;;;;;;;;26.12;45.06;99388.12;1808595;77;20127;-73
2022/10/22 07:53:04;;;;;;;;;;;;;;;26.09;45.08;99394.41;1817080;78;20128;-74
2022/10/22 07:55:51;;;;;;;;;;;;;;;26.12;45.04;99396.39;1821630;77;20301;-74
2022/10/22 07:58:40;;;;;;;;;;;;;;;26.12;45.02;99397.22;1826443;78;20285;-74
2022/10/22 08:01:27;;;;;;;;;;;;;;;26.09;45.01;99399.92;1818442;77;20236;-74
2022/10/22 08:04:15;;;;;;;;;;;;;;;26.10;45.01;99403.55;1809797;78;20172;-74
2022/10/22 08:07:02;;;;;;;;;;;;;;;26.10;45.00;99400.79;1839007;77;20233;-75
2022/10/22 08:09:50;;;;;;;;;;;;;;;26.12;44.94;99399.98;1816057;78;20210;-75
2022/10/22 08:12:37;;;;;;;;;;;;;;;26.13;44.93;99404.95;1830416;77;20174;-75
2022/10/22 08:15:26;;;;;;;;;;;;;;;26.14;44.86;99401.11;1828478;77;20219;-76
2022/10/22 08:18:14;;;;;;;;;;;;;;;26.17;44.74;99408.83;1837213;77;20112;-75
2022/10/22 08:21:01;;;;;;;;;;;;;;;26.17;44.77;99417.09;1834868;78;20201;-74
2022/10/22 08:23:49;;;;;;;;;;;;;;;26.16;44.73;99420.42;1829183;78;20172;-74
2022/10/22 08:26:36;;;;;;;;;;;;;;;26.16;44.73;99412.16;1818418;78;20195;-74
2022/10/22 08:29:25;;;;;;;;;;;;;;;26.16;44.66;99417.66;1818248;77;20117;-75
2022/10/22 08:32:13;;;;;;;;;;;;;;;26.15;44.64;99409.64;1834153;78;20136;-74
2022/10/22 08:35:00;;;;;;;;;;;;;;;26.14;44.71;99405.25;1824023;77;20175;-74
2022/10/22 08:37:47;;;;;;;;;;;;;;;26.14;44.60;99412.94;1810727;79;20127;-73
2022/10/22 08:40:36;;;;;;;;;;;;;;;26.12;44.62;99414.28;1837282;77;20168;-74
2022/10/22 08:43:25;;;;;;;;;;;;;;;26.09;44.63;99416.44;1827622;77;20159;-74
2022/10/22 08:46:20;;;;;;;;;;;;;;;26.12;44.65;99422.55;1830578;78;20164;-74
2022/10/22 08:49:09;;;;;;;;;;;;;;;26.11;44.60;99427.24;1821660;77;20146;-74
2022/10/22 08:51:57;;;;;;;;;;;;;;;26.13;44.54;99428.34;1823057;79;20168;-74
2022/10/22 08:54:52;;;;;;;;;;;;;;;26.12;44.53;99428.05;1827092;78;20298;-74
2022/10/22 08:57:41;;;;;;;;;;;;;;;26.08;44.50;99418.08;1818217;77;20224;-75
2022/10/22 09:00:36;;;;;;;;;;;;;;;26.11;44.54;99425.03;1829478;78;20190;-74
2022/10/22 09:03:26;;;;;;;;;;;;;;;26.13;44.53;99418.17;1816255;77;20228;-74
2022/10/22 09:06:20;;;;;;;;;;;;;;;26.12;44.52;99412.91;1835209;78;20176;-74
2022/10/22 09:09:11;;;;;;;;;;;;;;;26.09;44.51;99409.55;1820982;77;20199;-75
2022/10/22 09:11:59;;;;;;;;;;;;;;;26.06;44.53;99404.59;1821075;77;20273;-74
2022/10/22 09:14:47;;;;;;;;;;;;;;;26.07;44.63;99396.59;1828524;77;20167;-73
2022/10/22 09:17:51;;;;;;;;;;;;;;;26.08;44.50;99403.78;1819794;78;20164;-74
2022/10/22 09:20:40;;;;;;;;;;;;;;;26.09;44.53;99410.12;1830776;78;20184;-74
2022/10/22 09:23:28;;;;;;;;;;;;;;;26.08;44.52;99405.70;1831176;77;20218;-74
2022/10/22 09:26:18;;;;;;;;;;;;;;;26.07;44.60;99413.66;1828514;78;20168;-74
2022/10/22 09:29:05;;;;;;;;;;;;;;;26.05;44.60;99415.30;1818920;77;20289;-74
2022/10/22 09:31:54;;;;;;;;;;;;;;;26.04;44.61;99415.00;1848378;77;20203;-74
2022/10/22 09:34:43;;;;;;;;;;;;;;;26.04;44.57;99413.63;1828254;77;20148;-74
2022/10/22 09:37:31;;;;;;;;;;;;;;;26.05;44.49;99408.95;1832060;78;20187;-74
2022/10/22 09:40:18;;;;;;;;;;;;;;;26.03;44.58;99409.23;1834724;77;20200;-74
2022/10/22 09:43:06;;;;;;;;;;;;;;;26.06;44.61;99409.26;1825209;78;20219;-75
2022/10/22 09:46:01;;;;;;;;;;;;;;;26.07;44.54;99405.39;1818128;79;20395;-74
2022/10/22 09:48:50;;;;;;;;;;;;;;;26.06;44.50;99399.63;1826197;77;20162;-74
2022/10/22 09:51:39;;;;;;;;;;;;;;;26.02;44.58;99399.30;1833880;77;20188;-75
2022/10/22 09:54:35;;;;;;;;;;;;;;;26.05;44.50;99387.77;1830999;77;20226;-75
2022/10/22 09:57:22;;;;;;;;;;;;;;;26.06;44.51;99389.98;1824462;77;20180;-75
2022/10/22 10:00:11;;;;;;;;;;;;;;;26.03;44.52;99392.71;1835911;78;20208;-74
2022/10/22 10:03:00;;;;;;;;;;;;;;;26.02;44.59;99391.03;1837012;77;20203;-74
2022/10/22 10:05:49;;;;;;;;;;;;;;;26.03;44.51;99384.99;1826675;77;20153;-74
2022/10/22 10:08:36;;;;;;;;;;;;;;;26.02;44.51;99385.53;1831313;78;20199;-74
2022/10/22 10:11:25;;;;;;;;;;;;;;;26.02;44.46;99382.77;1834022;78;20147;-75
2022/10/22 10:14:17;;;;;;;;;;;;;;;26.03;44.50;99378.95;1833959;77;20129;-75
2022/10/22 10:17:06;;;;;;;;;;;;;;;26.03;44.47;99380.33;1816657;77;20235;-74
2022/10/22 10:20:04;;;;;;;;;;;;;;;25.99;44.57;99391.58;1832772;77;20214;-73
2022/10/22 10:22:52;;;;;;;;;;;;;;;26.02;44.52;99386.10;1820636;77;20249;-75
2022/10/22 10:25:58;;;;;;;;;;;;;;;26.10;44.75;99384.27;1815590;77;20179;-72
2022/10/22 10:28:49;;;;;;;;;;;;;;;26.22;45.31;99381.35;1817133;77;20195;-76
2022/10/22 11:13:38;;;;;;;;;;;;;;;22.16;54.03;99349.38;1942303;72;20137;-72
2022/10/22 16:12:18;;;;;;;;;;;;;;;21.28;57.48;99084.13;1934820;72;25755;-73
2022/10/22 16:15:06;;;;;;;;;;;;;;;21.62;57.01;99079.77;1883254;75;20206;-73
2022/10/22 16:17:54;;;;;;;;;;;;;;;22.41;55.74;99076.31;1888059;75;20265;-74
2022/10/22 16:20:42;;;;;;;;;;;;;;;23.08;54.29;99081.42;1910286;73;20171;-74
2022/10/22 16:23:30;;;;;;;;;;;;;;;23.63;53.06;99070.59;1898221;75;20178;-75
2022/10/22 17:22:57;;;;;;;;;;;;;;;21.32;57.32;99107.73;1945937;72;20264;-72
2022/10/22 17:25:44;;;;;;;;;;;;;;;21.68;57.01;99121.17;1890082;75;20154;-72
2022/10/22 17:28:33;;;;;;;;;;;;;;;22.48;55.81;99127.64;1898613;75;20162;-72
2022/10/22 17:31:22;;;;;;;;;;;;;;;23.12;54.55;99120.14;1889631;75;20115;-72
2022/10/22 17:34:10;;;;;;;;;;;;;;;23.67;53.37;99131.23;1895719;75;20212;-71
2022/10/22 17:36:59;;;;;;;;;;;;;;;24.09;52.34;99131.07;1905902;75;20122;-72
2022/10/22 17:39:46;;;;;;;;;;;;;;;24.44;51.59;99138.95;1926757;73;20113;-72
2022/10/22 17:42:34;;;;;;;;;;;;;;;24.72;50.86;99127.23;1896899;75;20119;-73
2022/10/22 17:45:22;;;;;;;;;;;;;;;24.99;50.34;99129.20;1904488;75;20182;-74
2022/10/22 17:48:10;;;;;;;;;;;;;;;25.16;49.92;99127.16;1905999;73;20173;-75
2022/10/22 17:50:58;;;;;;;;;;;;;;;25.32;49.53;99133.11;1907776;75;20204;-73
2022/10/22 17:53:49;;;;;;;;;;;;;;;25.47;49.21;99138.76;1908045;75;20162;-75
2022/10/22 17:56:38;;;;;;;;;;;;;;;25.57;48.85;99131.98;1897415;75;20157;-77
2022/10/22 20:55:28;;;;;;;;;;;;;;;23.63;53.40;99198.63;1941374;72;20177;-72
2022/10/22 20:58:21;;;;;;;;;;;;;;;23.98;52.34;99193.72;1878808;75;20174;-72
2022/10/22 21:01:09;;;;;;;;;;;;;;;24.34;51.23;99184.94;1893011;75;20217;-72
